sensor_id;sensor_type;location;lat;lon;timestamp;temperature;humidity
21698;DHT22;11010;49.548;11.926;2023-05-16T00:00:19;13.40;99.90
21698;DHT22;11010;49.548;11.926;2023-05-16T00:02:46;13.40;99.90
21698;DHT22;11010;49.548;11.926;2023-05-16T00:05:14;13.30;99.90
21698;DHT22;11010;49.548;11.926;2023-05-16T00:07:43;12.90;99.90
21698;DHT22;11010;49.548;11.926;2023-05-16T00:10:11;13.00;99.90
21698;DHT22;11010;49.548;11.926;2023-05-16T00:12:38;13.20;99.90
21698;DHT22;11010;49.548;11.926;2023-05-16T00:15:06;13.20;99.90
21698;DHT22;11010;49.548;11.926;2023-05-16T00:17:34;13.10;99.90
21698;DHT22;11010;49.548;11.926;2023-05-16T00:20:02;12.70;99.90
21698;DHT22;11010;49.548;11.926;2023-05-16T00:22:33;12.50;99.90
21698;DHT22;11010;49.548;11.926;2023-05-16T00:25:00;12.80;99.90
21698;DHT22;11010;49.548;11.926;2023-05-16T00:27:27;12.90;99.90
21698;DHT22;11010;49.548;11.926;2023-05-16T00:29:55;13.00;99.90
21698;DHT22;11010;49.548;11.926;2023-05-16T00:32:23;13.00;99.90
21698;DHT22;11010;49.548;11.926;2023-05-16T00:34:50;13.00;99.90
21698;DHT22;11010;49.548;11.926;2023-05-16T00:37:19;13.00;99.90
21698;DHT22;11010;49.548;11.926;2023-05-16T00:39:46;13.10;99.90
21698;DHT22;11010;49.548;11.926;2023-05-16T00:42:14;13.10;99.90
21698;DHT22;11010;49.548;11.926;2023-05-16T00:44:41;13.10;99.90
21698;DHT22;11010;49.548;11.926;2023-05-16T00:47:08;13.10;99.90
21698;DHT22;11010;49.548;11.926;2023-05-16T00:49:35;13.00;99.90
21698;DHT22;11010;49.548;11.926;2023-05-16T00:52:03;13.00;99.90
21698;DHT22;11010;49.548;11.926;2023-05-16T00:54:30;12.90;99.90
21698;DHT22;11010;49.548;11.926;2023-05-16T00:56:57;12.90;99.90
21698;DHT22;11010;49.548;11.926;2023-05-16T00:59:25;12.90;99.90
21698;DHT22;11010;49.548;11.926;2023-05-16T01:01:52;12.90;99.90
21698;DHT22;11010;49.548;11.926;2023-05-16T01:04:21;12.90;99.90
21698;DHT22;11010;49.548;11.926;2023-05-16T01:06:48;12.80;99.90
21698;DHT22;11010;49.548;11.926;2023-05-16T01:09:15;12.70;99.90
21698;DHT22;11010;49.548;11.926;2023-05-16T01:11:49;12.70;99.90
21698;DHT22;11010;49.548;11.926;2023-05-16T01:14:27;12.70;99.90
21698;DHT22;11010;49.548;11.926;2023-05-16T01:17:06;12.70;99.90
21698;DHT22;11010;49.548;11.926;2023-05-16T01:20:04;12.60;99.90
21698;DHT22;11010;49.548;11.926;2023-05-16T01:28:02;12.60;99.90
21698;DHT22;11010;49.548;11.926;2023-05-16T01:30:39;12.60;99.90
21698;DHT22;11010;49.548;11.926;2023-05-16T01:33:08;12.50;99.90
21698;DHT22;11010;49.548;11.926;2023-05-16T01:38:32;11.90;99.90
21698;DHT22;11010;49.548;11.926;2023-05-16T01:43:43;12.30;99.90
21698;DHT22;11010;49.548;11.926;2023-05-16T01:46:15;12.30;99.90
21698;DHT22;11010;49.548;11.926;2023-05-16T01:51:36;12.30;99.90
21698;DHT22;11010;49.548;11.926;2023-05-16T01:54:05;12.20;99.90
21698;DHT22;11010;49.548;11.926;2023-05-16T01:56:36;12.20;99.90
21698;DHT22;11010;49.548;11.926;2023-05-16T01:59:04;12.20;99.90
21698;DHT22;11010;49.548;11.926;2023-05-16T02:01:31;12.30;99.90
21698;DHT22;11010;49.548;11.926;2023-05-16T02:03:59;12.30;99.90
21698;DHT22;11010;49.548;11.926;2023-05-16T02:06:26;12.20;99.90
21698;DHT22;11010;49.548;11.926;2023-05-16T02:08:55;12.20;99.90
21698;DHT22;11010;49.548;11.926;2023-05-16T02:11:22;12.10;99.90
21698;DHT22;11010;49.548;11.926;2023-05-16T02:13:50;12.00;99.90
21698;DHT22;11010;49.548;11.926;2023-05-16T02:16:17;12.10;99.90
21698;DHT22;11010;49.548;11.926;2023-05-16T02:18:44;12.10;99.90
21698;DHT22;11010;49.548;11.926;2023-05-16T02:21:12;12.10;99.90
21698;DHT22;11010;49.548;11.926;2023-05-16T02:23:39;12.00;99.90
21698;DHT22;11010;49.548;11.926;2023-05-16T02:26:06;12.00;99.90
21698;DHT22;11010;49.548;11.926;2023-05-16T02:28:33;12.10;99.90
21698;DHT22;11010;49.548;11.926;2023-05-16T02:31:00;12.00;99.90
21698;DHT22;11010;49.548;11.926;2023-05-16T02:33:28;12.00;99.90
21698;DHT22;11010;49.548;11.926;2023-05-16T02:35:55;11.90;99.90
21698;DHT22;11010;49.548;11.926;2023-05-16T02:38:24;11.90;99.90
21698;DHT22;11010;49.548;11.926;2023-05-16T02:40:51;11.80;99.90
21698;DHT22;11010;49.548;11.926;2023-05-16T02:43:20;11.90;99.90
21698;DHT22;11010;49.548;11.926;2023-05-16T02:45:47;11.80;99.90
21698;DHT22;11010;49.548;11.926;2023-05-16T02:48:16;11.90;99.90
21698;DHT22;11010;49.548;11.926;2023-05-16T02:50:43;11.70;99.90
21698;DHT22;11010;49.548;11.926;2023-05-16T02:53:10;11.80;99.90
21698;DHT22;11010;49.548;11.926;2023-05-16T02:55:37;11.80;99.90
21698;DHT22;11010;49.548;11.926;2023-05-16T02:58:04;11.80;99.90
21698;DHT22;11010;49.548;11.926;2023-05-16T03:00:31;11.80;99.90
21698;DHT22;11010;49.548;11.926;2023-05-16T03:02:59;11.70;99.90
21698;DHT22;11010;49.548;11.926;2023-05-16T03:05:26;11.60;99.90
21698;DHT22;11010;49.548;11.926;2023-05-16T03:07:53;11.60;99.90
21698;DHT22;11010;49.548;11.926;2023-05-16T03:10:20;11.20;99.90
21698;DHT22;11010;49.548;11.926;2023-05-16T03:12:47;11.30;99.90
21698;DHT22;11010;49.548;11.926;2023-05-16T03:15:14;11.40;99.90
21698;DHT22;11010;49.548;11.926;2023-05-16T03:17:42;11.50;99.90
21698;DHT22;11010;49.548;11.926;2023-05-16T03:20:10;11.60;99.90
21698;DHT22;11010;49.548;11.926;2023-05-16T03:22:37;11.70;99.90
21698;DHT22;11010;49.548;11.926;2023-05-16T03:25:06;11.70;99.90
21698;DHT22;11010;49.548;11.926;2023-05-16T03:27:33;11.70;99.90
21698;DHT22;11010;49.548;11.926;2023-05-16T03:30:00;11.70;99.90
21698;DHT22;11010;49.548;11.926;2023-05-16T03:32:28;11.60;99.90
21698;DHT22;11010;49.548;11.926;2023-05-16T03:34:55;11.60;99.90
21698;DHT22;11010;49.548;11.926;2023-05-16T03:37:22;11.60;99.90
21698;DHT22;11010;49.548;11.926;2023-05-16T03:39:50;11.60;99.90
21698;DHT22;11010;49.548;11.926;2023-05-16T03:42:17;11.40;99.90
21698;DHT22;11010;49.548;11.926;2023-05-16T03:44:44;11.60;99.90
21698;DHT22;11010;49.548;11.926;2023-05-16T03:47:11;11.50;99.90
21698;DHT22;11010;49.548;11.926;2023-05-16T03:49:38;11.50;99.90
21698;DHT22;11010;49.548;11.926;2023-05-16T03:52:05;11.50;99.90
21698;DHT22;11010;49.548;11.926;2023-05-16T03:54:33;11.40;99.90
21698;DHT22;11010;49.548;11.926;2023-05-16T03:57:00;11.50;99.90
21698;DHT22;11010;49.548;11.926;2023-05-16T03:59:27;11.50;99.90
21698;DHT22;11010;49.548;11.926;2023-05-16T04:01:54;11.40;99.90
21698;DHT22;11010;49.548;11.926;2023-05-16T04:04:21;11.40;99.90
21698;DHT22;11010;49.548;11.926;2023-05-16T04:06:48;11.40;99.90
21698;DHT22;11010;49.548;11.926;2023-05-16T04:09:15;11.30;99.90
21698;DHT22;11010;49.548;11.926;2023-05-16T04:11:42;11.40;99.90
21698;DHT22;11010;49.548;11.926;2023-05-16T04:14:10;11.30;99.90
21698;DHT22;11010;49.548;11.926;2023-05-16T04:16:37;11.30;99.90
21698;DHT22;11010;49.548;11.926;2023-05-16T04:19:04;11.30;99.90
21698;DHT22;11010;49.548;11.926;2023-05-16T04:21:31;11.30;99.90
21698;DHT22;11010;49.548;11.926;2023-05-16T04:23:59;11.20;99.90
21698;DHT22;11010;49.548;11.926;2023-05-16T04:26:26;11.30;99.90
21698;DHT22;11010;49.548;11.926;2023-05-16T04:28:53;11.30;99.90
21698;DHT22;11010;49.548;11.926;2023-05-16T04:31:21;11.20;99.90
21698;DHT22;11010;49.548;11.926;2023-05-16T04:33:48;11.20;99.90
21698;DHT22;11010;49.548;11.926;2023-05-16T04:36:16;11.20;99.90
21698;DHT22;11010;49.548;11.926;2023-05-16T04:38:43;11.20;99.90
21698;DHT22;11010;49.548;11.926;2023-05-16T04:41:12;11.20;99.90
21698;DHT22;11010;49.548;11.926;2023-05-16T04:43:40;11.30;99.90
21698;DHT22;11010;49.548;11.926;2023-05-16T04:46:08;11.30;99.90
21698;DHT22;11010;49.548;11.926;2023-05-16T04:48:35;11.30;99.90
21698;DHT22;11010;49.548;11.926;2023-05-16T04:51:03;11.40;99.90
21698;DHT22;11010;49.548;11.926;2023-05-16T04:53:30;11.40;99.90
21698;DHT22;11010;49.548;11.926;2023-05-16T04:55:57;11.40;99.90
21698;DHT22;11010;49.548;11.926;2023-05-16T04:58:24;11.50;99.90
21698;DHT22;11010;49.548;11.926;2023-05-16T05:00:51;11.40;99.90
21698;DHT22;11010;49.548;11.926;2023-05-16T05:03:18;11.40;99.90
21698;DHT22;11010;49.548;11.926;2023-05-16T05:05:46;11.50;99.90
21698;DHT22;11010;49.548;11.926;2023-05-16T05:08:13;11.50;99.90
21698;DHT22;11010;49.548;11.926;2023-05-16T05:10:40;11.60;99.90
21698;DHT22;11010;49.548;11.926;2023-05-16T05:13:07;11.70;99.90
21698;DHT22;11010;49.548;11.926;2023-05-16T05:15:35;11.80;99.90
21698;DHT22;11010;49.548;11.926;2023-05-16T05:18:02;11.80;99.90
21698;DHT22;11010;49.548;11.926;2023-05-16T05:20:29;11.80;99.90
21698;DHT22;11010;49.548;11.926;2023-05-16T05:22:56;11.70;99.90
21698;DHT22;11010;49.548;11.926;2023-05-16T05:25:23;11.60;99.90
21698;DHT22;11010;49.548;11.926;2023-05-16T05:27:50;11.70;99.90
21698;DHT22;11010;49.548;11.926;2023-05-16T05:30:17;11.70;99.90
21698;DHT22;11010;49.548;11.926;2023-05-16T05:32:44;11.30;99.90
21698;DHT22;11010;49.548;11.926;2023-05-16T05:35:12;11.30;99.90
21698;DHT22;11010;49.548;11.926;2023-05-16T05:37:39;11.70;99.90
21698;DHT22;11010;49.548;11.926;2023-05-16T05:40:06;11.90;99.90
21698;DHT22;11010;49.548;11.926;2023-05-16T05:42:33;12.00;99.90
21698;DHT22;11010;49.548;11.926;2023-05-16T05:45:01;12.00;99.90
21698;DHT22;11010;49.548;11.926;2023-05-16T05:47:28;12.00;99.90
21698;DHT22;11010;49.548;11.926;2023-05-16T05:49:55;12.10;99.90
21698;DHT22;11010;49.548;11.926;2023-05-16T05:52:23;12.10;99.90
21698;DHT22;11010;49.548;11.926;2023-05-16T05:54:50;12.20;99.90
21698;DHT22;11010;49.548;11.926;2023-05-16T05:57:17;12.30;99.90
21698;DHT22;11010;49.548;11.926;2023-05-16T05:59:44;12.30;99.90
21698;DHT22;11010;49.548;11.926;2023-05-16T06:02:11;12.20;99.90
21698;DHT22;11010;49.548;11.926;2023-05-16T06:04:39;12.30;99.90
21698;DHT22;11010;49.548;11.926;2023-05-16T06:07:08;12.40;99.90
21698;DHT22;11010;49.548;11.926;2023-05-16T06:09:35;12.50;99.90
21698;DHT22;11010;49.548;11.926;2023-05-16T06:12:02;12.60;99.90
21698;DHT22;11010;49.548;11.926;2023-05-16T06:14:30;12.70;99.90
21698;DHT22;11010;49.548;11.926;2023-05-16T06:16:57;12.80;99.90
21698;DHT22;11010;49.548;11.926;2023-05-16T06:19:24;13.00;99.90
21698;DHT22;11010;49.548;11.926;2023-05-16T06:21:51;12.90;99.90
21698;DHT22;11010;49.548;11.926;2023-05-16T06:24:18;12.90;99.90
21698;DHT22;11010;49.548;11.926;2023-05-16T06:26:45;13.00;99.90
21698;DHT22;11010;49.548;11.926;2023-05-16T06:29:16;13.00;99.90
21698;DHT22;11010;49.548;11.926;2023-05-16T06:31:44;13.10;99.90
21698;DHT22;11010;49.548;11.926;2023-05-16T06:34:12;13.10;99.90
21698;DHT22;11010;49.548;11.926;2023-05-16T06:36:39;13.10;99.90
21698;DHT22;11010;49.548;11.926;2023-05-16T06:39:06;13.10;99.90
21698;DHT22;11010;49.548;11.926;2023-05-16T06:41:33;13.00;99.90
21698;DHT22;11010;49.548;11.926;2023-05-16T06:44:02;12.90;99.90
21698;DHT22;11010;49.548;11.926;2023-05-16T06:46:30;12.90;99.90
21698;DHT22;11010;49.548;11.926;2023-05-16T06:48:58;12.90;99.90
21698;DHT22;11010;49.548;11.926;2023-05-16T06:51:25;13.00;99.90
21698;DHT22;11010;49.548;11.926;2023-05-16T06:53:52;13.10;99.90
21698;DHT22;11010;49.548;11.926;2023-05-16T06:56:20;13.10;99.90
21698;DHT22;11010;49.548;11.926;2023-05-16T06:58:47;13.10;99.90
21698;DHT22;11010;49.548;11.926;2023-05-16T07:01:15;13.20;99.90
21698;DHT22;11010;49.548;11.926;2023-05-16T07:03:42;13.20;99.90
21698;DHT22;11010;49.548;11.926;2023-05-16T07:06:10;13.30;99.90
21698;DHT22;11010;49.548;11.926;2023-05-16T07:08:37;13.20;99.90
21698;DHT22;11010;49.548;11.926;2023-05-16T07:11:04;13.10;99.90
21698;DHT22;11010;49.548;11.926;2023-05-16T07:13:31;13.10;99.90
21698;DHT22;11010;49.548;11.926;2023-05-16T07:16:01;13.10;99.90
21698;DHT22;11010;49.548;11.926;2023-05-16T07:18:29;13.20;99.90
21698;DHT22;11010;49.548;11.926;2023-05-16T07:20:56;13.30;99.90
21698;DHT22;11010;49.548;11.926;2023-05-16T07:23:23;13.50;99.90
21698;DHT22;11010;49.548;11.926;2023-05-16T07:25:51;13.50;99.90
21698;DHT22;11010;49.548;11.926;2023-05-16T07:28:19;13.40;99.90
21698;DHT22;11010;49.548;11.926;2023-05-16T07:30:46;13.40;99.90
21698;DHT22;11010;49.548;11.926;2023-05-16T07:33:13;13.50;99.90
21698;DHT22;11010;49.548;11.926;2023-05-16T07:35:40;13.40;99.90
21698;DHT22;11010;49.548;11.926;2023-05-16T07:38:07;13.40;99.90
21698;DHT22;11010;49.548;11.926;2023-05-16T07:40:34;13.40;99.90
21698;DHT22;11010;49.548;11.926;2023-05-16T07:43:02;13.50;99.90
21698;DHT22;11010;49.548;11.926;2023-05-16T07:45:29;13.50;99.90
21698;DHT22;11010;49.548;11.926;2023-05-16T07:47:56;13.50;99.90
21698;DHT22;11010;49.548;11.926;2023-05-16T07:50:24;13.60;99.90
21698;DHT22;11010;49.548;11.926;2023-05-16T07:52:51;13.60;99.90
21698;DHT22;11010;49.548;11.926;2023-05-16T07:55:18;13.60;99.90
21698;DHT22;11010;49.548;11.926;2023-05-16T07:57:48;13.70;99.90
21698;DHT22;11010;49.548;11.926;2023-05-16T08:00:16;13.90;99.90
21698;DHT22;11010;49.548;11.926;2023-05-16T08:02:44;14.10;99.90
21698;DHT22;11010;49.548;11.926;2023-05-16T08:05:11;14.20;99.90
21698;DHT22;11010;49.548;11.926;2023-05-16T08:07:38;14.20;99.90
21698;DHT22;11010;49.548;11.926;2023-05-16T08:10:06;14.30;99.90
21698;DHT22;11010;49.548;11.926;2023-05-16T08:12:33;14.30;99.90
21698;DHT22;11010;49.548;11.926;2023-05-16T08:15:01;14.40;99.90
21698;DHT22;11010;49.548;11.926;2023-05-16T08:17:28;14.30;99.90
21698;DHT22;11010;49.548;11.926;2023-05-16T08:19:56;14.20;99.90
21698;DHT22;11010;49.548;11.926;2023-05-16T08:22:25;14.30;99.90
21698;DHT22;11010;49.548;11.926;2023-05-16T08:24:52;14.50;99.90
21698;DHT22;11010;49.548;11.926;2023-05-16T08:27:23;14.60;99.90
21698;DHT22;11010;49.548;11.926;2023-05-16T08:29:51;14.70;99.90
21698;DHT22;11010;49.548;11.926;2023-05-16T08:32:18;14.80;99.90
21698;DHT22;11010;49.548;11.926;2023-05-16T08:34:45;14.80;99.90
21698;DHT22;11010;49.548;11.926;2023-05-16T08:37:12;14.80;99.90
21698;DHT22;11010;49.548;11.926;2023-05-16T08:39:42;14.70;99.90
21698;DHT22;11010;49.548;11.926;2023-05-16T08:42:10;14.90;99.90
21698;DHT22;11010;49.548;11.926;2023-05-16T08:44:37;15.00;99.90
21698;DHT22;11010;49.548;11.926;2023-05-16T08:47:11;15.20;99.90
21698;DHT22;11010;49.548;11.926;2023-05-16T08:49:40;15.30;99.90
21698;DHT22;11010;49.548;11.926;2023-05-16T08:52:09;15.20;99.90
21698;DHT22;11010;49.548;11.926;2023-05-16T08:54:36;15.20;99.90
21698;DHT22;11010;49.548;11.926;2023-05-16T08:57:05;15.20;99.90
21698;DHT22;11010;49.548;11.926;2023-05-16T08:59:34;15.20;99.90
21698;DHT22;11010;49.548;11.926;2023-05-16T09:02:01;15.20;99.90
21698;DHT22;11010;49.548;11.926;2023-05-16T09:04:28;15.30;99.90
21698;DHT22;11010;49.548;11.926;2023-05-16T09:06:56;15.30;99.90
21698;DHT22;11010;49.548;11.926;2023-05-16T09:09:23;15.50;99.90
21698;DHT22;11010;49.548;11.926;2023-05-16T09:11:50;15.70;99.90
21698;DHT22;11010;49.548;11.926;2023-05-16T09:14:18;15.60;99.90
21698;DHT22;11010;49.548;11.926;2023-05-16T09:17:02;15.60;99.90
21698;DHT22;11010;49.548;11.926;2023-05-16T09:22:14;15.60;99.90
21698;DHT22;11010;49.548;11.926;2023-05-16T09:24:43;15.60;99.90
21698;DHT22;11010;49.548;11.926;2023-05-16T09:27:12;15.70;99.90
21698;DHT22;11010;49.548;11.926;2023-05-16T09:29:40;15.70;99.90
21698;DHT22;11010;49.548;11.926;2023-05-16T09:32:15;15.70;99.90
21698;DHT22;11010;49.548;11.926;2023-05-16T09:34:47;15.80;99.90
21698;DHT22;11010;49.548;11.926;2023-05-16T09:37:15;16.00;99.90
21698;DHT22;11010;49.548;11.926;2023-05-16T09:42:14;16.10;99.90
21698;DHT22;11010;49.548;11.926;2023-05-16T09:44:46;16.20;99.90
21698;DHT22;11010;49.548;11.926;2023-05-16T09:47:18;16.20;99.90
21698;DHT22;11010;49.548;11.926;2023-05-16T09:49:52;16.30;99.90
21698;DHT22;11010;49.548;11.926;2023-05-16T09:52:20;16.40;99.90
21698;DHT22;11010;49.548;11.926;2023-05-16T09:54:47;16.20;99.90
21698;DHT22;11010;49.548;11.926;2023-05-16T09:57:19;16.20;99.90
21698;DHT22;11010;49.548;11.926;2023-05-16T09:59:47;16.10;99.90
21698;DHT22;11010;49.548;11.926;2023-05-16T10:02:15;16.10;99.90
21698;DHT22;11010;49.548;11.926;2023-05-16T10:04:43;16.10;99.90
21698;DHT22;11010;49.548;11.926;2023-05-16T10:07:10;16.00;99.90
21698;DHT22;11010;49.548;11.926;2023-05-16T10:09:40;15.80;99.90
21698;DHT22;11010;49.548;11.926;2023-05-16T10:12:09;15.80;99.90
21698;DHT22;11010;49.548;11.926;2023-05-16T10:14:40;15.80;99.90
21698;DHT22;11010;49.548;11.926;2023-05-16T10:17:10;15.80;99.90
21698;DHT22;11010;49.548;11.926;2023-05-16T10:19:38;15.80;99.90
21698;DHT22;11010;49.548;11.926;2023-05-16T10:22:07;16.00;99.90
21698;DHT22;11010;49.548;11.926;2023-05-16T10:27:25;15.90;99.90
21698;DHT22;11010;49.548;11.926;2023-05-16T10:29:52;15.90;99.90
21698;DHT22;11010;49.548;11.926;2023-05-16T10:32:22;16.10;99.90
21698;DHT22;11010;49.548;11.926;2023-05-16T10:34:51;16.30;99.90
21698;DHT22;11010;49.548;11.926;2023-05-16T10:37:18;16.50;99.90
21698;DHT22;11010;49.548;11.926;2023-05-16T10:39:46;16.40;99.90
21698;DHT22;11010;49.548;11.926;2023-05-16T10:42:13;16.70;99.90
21698;DHT22;11010;49.548;11.926;2023-05-16T10:44:44;17.00;99.90
21698;DHT22;11010;49.548;11.926;2023-05-16T10:47:28;17.70;99.90
21698;DHT22;11010;49.548;11.926;2023-05-16T10:49:55;18.00;99.90
21698;DHT22;11010;49.548;11.926;2023-05-16T10:52:32;18.40;99.90
21698;DHT22;11010;49.548;11.926;2023-05-16T10:55:02;18.30;99.90
21698;DHT22;11010;49.548;11.926;2023-05-16T10:57:32;17.60;99.90
21698;DHT22;11010;49.548;11.926;2023-05-16T11:00:00;17.50;99.90
21698;DHT22;11010;49.548;11.926;2023-05-16T11:02:30;17.60;99.90
21698;DHT22;11010;49.548;11.926;2023-05-16T11:05:01;17.30;99.90
21698;DHT22;11010;49.548;11.926;2023-05-16T11:07:33;17.10;99.90
21698;DHT22;11010;49.548;11.926;2023-05-16T11:10:04;16.70;99.90
21698;DHT22;11010;49.548;11.926;2023-05-16T11:12:48;16.70;99.90
21698;DHT22;11010;49.548;11.926;2023-05-16T11:15:21;16.70;99.90
21698;DHT22;11010;49.548;11.926;2023-05-16T11:17:49;16.70;99.90
21698;DHT22;11010;49.548;11.926;2023-05-16T11:20:30;16.40;99.90
21698;DHT22;11010;49.548;11.926;2023-05-16T11:23:23;16.30;99.90
21698;DHT22;11010;49.548;11.926;2023-05-16T11:25:57;16.40;99.90
21698;DHT22;11010;49.548;11.926;2023-05-16T11:28:26;17.50;99.90
21698;DHT22;11010;49.548;11.926;2023-05-16T11:30:56;17.90;99.90
21698;DHT22;11010;49.548;11.926;2023-05-16T11:33:25;17.60;99.90
21698;DHT22;11010;49.548;11.926;2023-05-16T11:36:13;17.30;99.90
21698;DHT22;11010;49.548;11.926;2023-05-16T11:38:42;17.50;99.90
21698;DHT22;11010;49.548;11.926;2023-05-16T11:41:10;17.60;99.90
21698;DHT22;11010;49.548;11.926;2023-05-16T11:43:40;17.70;99.90
21698;DHT22;11010;49.548;11.926;2023-05-16T11:46:14;18.20;99.90
21698;DHT22;11010;49.548;11.926;2023-05-16T11:48:42;18.50;99.90
21698;DHT22;11010;49.548;11.926;2023-05-16T11:51:12;18.80;99.90
21698;DHT22;11010;49.548;11.926;2023-05-16T11:53:45;18.90;99.90
21698;DHT22;11010;49.548;11.926;2023-05-16T11:56:13;18.90;99.90
21698;DHT22;11010;49.548;11.926;2023-05-16T11:58:41;18.50;99.90
21698;DHT22;11010;49.548;11.926;2023-05-16T12:01:08;18.20;99.90
21698;DHT22;11010;49.548;11.926;2023-05-16T12:03:37;18.10;99.90
21698;DHT22;11010;49.548;11.926;2023-05-16T12:06:05;18.20;99.90
21698;DHT22;11010;49.548;11.926;2023-05-16T12:08:32;18.60;99.90
21698;DHT22;11010;49.548;11.926;2023-05-16T12:11:01;18.40;99.90
21698;DHT22;11010;49.548;11.926;2023-05-16T12:13:28;18.30;99.90
21698;DHT22;11010;49.548;11.926;2023-05-16T12:15:56;17.90;99.90
21698;DHT22;11010;49.548;11.926;2023-05-16T12:18:24;17.70;99.90
21698;DHT22;11010;49.548;11.926;2023-05-16T12:20:52;17.70;99.90
21698;DHT22;11010;49.548;11.926;2023-05-16T12:23:19;17.60;99.90
21698;DHT22;11010;49.548;11.926;2023-05-16T12:25:47;17.50;99.90
21698;DHT22;11010;49.548;11.926;2023-05-16T12:28:15;17.50;99.90
21698;DHT22;11010;49.548;11.926;2023-05-16T12:30:43;17.10;99.90
21698;DHT22;11010;49.548;11.926;2023-05-16T12:33:15;17.20;99.90
21698;DHT22;11010;49.548;11.926;2023-05-16T12:35:45;17.10;99.90
21698;DHT22;11010;49.548;11.926;2023-05-16T12:38:14;16.90;99.90
21698;DHT22;11010;49.548;11.926;2023-05-16T12:40:43;17.00;99.90
21698;DHT22;11010;49.548;11.926;2023-05-16T12:45:54;16.90;99.90
21698;DHT22;11010;49.548;11.926;2023-05-16T12:48:23;16.90;99.90
21698;DHT22;11010;49.548;11.926;2023-05-16T12:50:50;17.10;99.90
21698;DHT22;11010;49.548;11.926;2023-05-16T12:53:17;16.90;99.90
21698;DHT22;11010;49.548;11.926;2023-05-16T12:55:45;16.80;99.90
21698;DHT22;11010;49.548;11.926;2023-05-16T12:58:12;16.80;99.90
21698;DHT22;11010;49.548;11.926;2023-05-16T13:00:39;16.70;99.90
21698;DHT22;11010;49.548;11.926;2023-05-16T13:03:07;16.80;99.90
21698;DHT22;11010;49.548;11.926;2023-05-16T13:05:35;16.50;99.90
21698;DHT22;11010;49.548;11.926;2023-05-16T13:08:03;16.50;99.90
21698;DHT22;11010;49.548;11.926;2023-05-16T13:10:30;16.10;99.90
21698;DHT22;11010;49.548;11.926;2023-05-16T13:12:57;16.40;99.90
21698;DHT22;11010;49.548;11.926;2023-05-16T13:15:27;16.40;99.90
21698;DHT22;11010;49.548;11.926;2023-05-16T13:17:55;16.50;99.90
21698;DHT22;11010;49.548;11.926;2023-05-16T13:20:22;16.10;99.90
21698;DHT22;11010;49.548;11.926;2023-05-16T13:22:50;16.20;99.90
21698;DHT22;11010;49.548;11.926;2023-05-16T13:25:17;16.20;99.90
21698;DHT22;11010;49.548;11.926;2023-05-16T13:27:44;16.30;99.90
21698;DHT22;11010;49.548;11.926;2023-05-16T13:30:12;16.50;99.90
21698;DHT22;11010;49.548;11.926;2023-05-16T13:32:40;16.40;99.90
21698;DHT22;11010;49.548;11.926;2023-05-16T13:35:07;16.30;99.90
21698;DHT22;11010;49.548;11.926;2023-05-16T13:37:36;16.10;99.90
21698;DHT22;11010;49.548;11.926;2023-05-16T13:40:04;16.00;99.90
21698;DHT22;11010;49.548;11.926;2023-05-16T13:42:31;16.00;99.90
21698;DHT22;11010;49.548;11.926;2023-05-16T13:44:58;16.00;99.90
21698;DHT22;11010;49.548;11.926;2023-05-16T13:47:25;15.90;99.90
21698;DHT22;11010;49.548;11.926;2023-05-16T13:49:52;15.60;99.90
21698;DHT22;11010;49.548;11.926;2023-05-16T13:52:19;15.50;99.90
21698;DHT22;11010;49.548;11.926;2023-05-16T13:54:47;15.60;99.90
21698;DHT22;11010;49.548;11.926;2023-05-16T13:57:14;15.70;99.90
21698;DHT22;11010;49.548;11.926;2023-05-16T13:59:41;15.70;99.90
21698;DHT22;11010;49.548;11.926;2023-05-16T14:02:11;15.60;99.90
21698;DHT22;11010;49.548;11.926;2023-05-16T14:04:38;15.80;99.90
21698;DHT22;11010;49.548;11.926;2023-05-16T14:07:05;15.40;99.90
21698;DHT22;11010;49.548;11.926;2023-05-16T14:09:33;15.80;99.90
21698;DHT22;11010;49.548;11.926;2023-05-16T14:12:01;15.80;99.90
21698;DHT22;11010;49.548;11.926;2023-05-16T14:14:30;15.60;99.90
21698;DHT22;11010;49.548;11.926;2023-05-16T14:16:58;15.70;99.90
21698;DHT22;11010;49.548;11.926;2023-05-16T14:19:25;15.70;99.90
21698;DHT22;11010;49.548;11.926;2023-05-16T14:21:52;15.80;99.90
21698;DHT22;11010;49.548;11.926;2023-05-16T14:24:19;15.70;99.90
21698;DHT22;11010;49.548;11.926;2023-05-16T14:26:46;15.40;99.90
21698;DHT22;11010;49.548;11.926;2023-05-16T14:29:14;15.50;99.90
21698;DHT22;11010;49.548;11.926;2023-05-16T14:31:41;15.30;99.90
21698;DHT22;11010;49.548;11.926;2023-05-16T14:34:08;15.40;99.90
21698;DHT22;11010;49.548;11.926;2023-05-16T14:36:35;15.50;99.90
21698;DHT22;11010;49.548;11.926;2023-05-16T14:39:02;15.10;99.90
21698;DHT22;11010;49.548;11.926;2023-05-16T14:41:30;15.10;99.90
21698;DHT22;11010;49.548;11.926;2023-05-16T14:43:57;14.90;99.90
21698;DHT22;11010;49.548;11.926;2023-05-16T14:46:24;15.00;99.90
21698;DHT22;11010;49.548;11.926;2023-05-16T14:48:51;15.10;99.90
21698;DHT22;11010;49.548;11.926;2023-05-16T14:51:18;15.00;99.90
21698;DHT22;11010;49.548;11.926;2023-05-16T14:53:45;14.90;99.90
21698;DHT22;11010;49.548;11.926;2023-05-16T14:56:13;15.20;99.90
21698;DHT22;11010;49.548;11.926;2023-05-16T14:58:40;14.80;99.90
21698;DHT22;11010;49.548;11.926;2023-05-16T15:01:07;15.00;99.90
21698;DHT22;11010;49.548;11.926;2023-05-16T15:03:35;15.00;99.90
21698;DHT22;11010;49.548;11.926;2023-05-16T15:06:20;14.90;99.90
21698;DHT22;11010;49.548;11.926;2023-05-16T15:08:47;15.00;99.90
21698;DHT22;11010;49.548;11.926;2023-05-16T15:11:15;14.80;99.90
21698;DHT22;11010;49.548;11.926;2023-05-16T15:13:42;14.70;99.90
21698;DHT22;11010;49.548;11.926;2023-05-16T15:16:09;14.80;99.90
21698;DHT22;11010;49.548;11.926;2023-05-16T15:18:38;14.70;99.90
21698;DHT22;11010;49.548;11.926;2023-05-16T15:21:06;14.60;99.90
21698;DHT22;11010;49.548;11.926;2023-05-16T15:23:34;14.50;99.90
21698;DHT22;11010;49.548;11.926;2023-05-16T15:26:03;14.40;99.90
21698;DHT22;11010;49.548;11.926;2023-05-16T15:28:30;14.50;99.90
21698;DHT22;11010;49.548;11.926;2023-05-16T15:30:57;14.30;99.90
21698;DHT22;11010;49.548;11.926;2023-05-16T15:33:24;14.60;99.90
21698;DHT22;11010;49.548;11.926;2023-05-16T15:35:52;14.60;99.90
21698;DHT22;11010;49.548;11.926;2023-05-16T15:38:19;14.50;99.90
21698;DHT22;11010;49.548;11.926;2023-05-16T15:40:46;14.30;99.90
21698;DHT22;11010;49.548;11.926;2023-05-16T15:43:23;14.30;99.90
21698;DHT22;11010;49.548;11.926;2023-05-16T15:45:50;14.10;99.90